Meteo Giornale » Osservazioni meteo Stati Uniti (USA) » St Charles Co Smartt
ore: 12:54 - Osservazioni Meteo St Charles Co Smartt
Lat. 38° 55' N Lon. 90° 25' W Alt. 133 metri s.l.m.
35 °C
Sereno
Temp. 24 Ore
21 °C
37 °C
Sud-Ovest
9.3 Km/h
Dew point 20 °C
Umidità 41 %
Visibilità 10 Km
Il sole sorge alle ore 06:30
Il sole tramonta alle ore 19:32
| Data e Ora | Cielo e Fenomeni | T °C | DP °C | Um. % | Pres. hPa | Vis. km | Vento km/h | |
|---|---|---|---|---|---|---|---|---|
| Oggi h: 12:54 | Sereno | 35 | 20 | 41 | 1016 | 10 | SO 9.3 | |
| Oggi h: 11:54 | Sereno | 33 | 22 | 52 | 1017 | 10 | N/NO 9.3 | |
| Oggi h: 10:54 | Sereno | 32 | 21 | 52 | 1017 | 10 | SO 11.1 | |
| Oggi h: 09:54 | Sereno | 30 | 21 | 58 | 1017 | 10 | SO 14.8 | |
| Oggi h: 08:54 | Sereno | 27 | 21 | 69 | 1017 | 10 | SO 7.4 | |
| Oggi h: 07:54 | Sereno | 24 | 21 | 83 | 1017 | 10 | N 0 | |
| Oggi h: 06:54 | Sereno | 21 | 19 | 88 | 1017 | 10 | N 0 | |
| Oggi h: 05:54 | Sereno | 21 | 19 | 88 | 1016 | 10 | N 0 | |
| Oggi h: 04:54 | Sereno | 21 | 20 | 94 | 1016 | 10 | N 0 | |
| Oggi h: 03:54 | Sereno | 22 | 20 | 88 | 1016 | 10 | N 0 | |
| Oggi h: 02:54 | Sereno | 22 | 21 | 94 | 1015 | 10 | N 0 | |
| Oggi h: 01:54 | Sereno | 22 | 21 | 94 | 1015 | 10 | N 0 | |
| Oggi h: 00:54 | Sereno | 22 | 21 | 94 | 1015 | 10 | N 0 | |
| Ieri h: 23:54 | Sereno | 24 | 21 | 83 | 1015 | 10 | N 0 | |
| Ieri h: 22:54 | Sereno | 23 | 21 | 88 | 1015 | 10 | N 5.5 | |
| Ieri h: 21:54 | Sereno | 24 | 21 | 83 | 1015 | 10 | N 0 | |
| Ieri h: 20:54 | Sereno | 26 | 21 | 73 | 1014 | 10 | E/NE 7.4 | |
| Ieri h: 19:54 | Sereno | 29 | 21 | 62 | 1014 | 10 | S/SO 11.1 | |
| Ieri h: 18:54 | Sereno | 33 | 20 | 46 | 1014 | 10 | S/SO 11.1 | |
| Ieri h: 17:54 | Sereno | 36 | 19 | 36 | 1014 | 10 | S/SO 18.5 | |
| Ieri h: 16:54 | Sereno | 37 | 20 | 37 | 1014 | 10 | S/SO 13 | |
| Ieri h: 15:54 | Sereno | 36 | 20 | 39 | 1014 | 10 | S 18.5 | |
| Ieri h: 14:54 | Sereno | 36 | 20 | 39 | 1015 | 10 | S/SO 14.8 | |
| Ieri h: 13:54 | Sereno | 36 | 20 | 39 | 1015 | 10 | S/SO 13 | |



